AYNZ/LAE METAR and TAF weather

Enter ICAO airport designator
Station Type Date Time Source
AYNZ METAR 2018/07/21 22:00 UTC NOAA

AYNZ 212200Z 22005KT 9999 FEW020 SCT045 25/20 Q1014=


Station Type Date Time Source
AYNZ Decoded METAR 2018/07/21 22:00 UTC NOAA

Station name not available
Jul 21, 2018 - 06:00 PM EDT / 2018.07.21 2200 UTC
Wind: from the SW (220 degrees) at 6 MPH (5 KT):0
Visibility: greater than 7 mile(s):0
Sky conditions: partly cloudy
Temperature: 77 F (25 C)
Dew Point: 68 F (20 C)
Relative Humidity: 73%
Pressure (altimeter): 29.94 in. Hg (1014 hPa)
ob: AYNZ 212200Z 22005KT 9999 FEW020 SCT045 25/20 Q1014=
cycle: 22

Station Type Date Time Source
AYNZ TAF 2015/08/19 08:15 UTC NOAA

TAF AYNZ 190550Z 1908/1920 09015KT 9999 SCT020 SCT120
FM191400 VRB03KT 9999 BKN040 Q 1011 1014 1013 1010


Example: see airport list